Valley, United Kingdom
Current Conditions -  °F | °C
As of 5:50 AM on Sunday 21 Dec 2014 (Local Time) from EGOV Reporting Station
Broken Clouds Broken Clouds  
Wind Chill: 10°   Ceiling: 2200
Heat Index: 10°   Visibility: 6mi
Dew Point:   Wind: 24mph
Humidity: 71%   Direction: 220°SW
Pressure: 30.21"   Gusts: NA
Location:  53.25°N, 4.53°W
Report Text: EGOV 210550Z AUTO 22021KT 9999 BKN022/// BKN030/// 10/05 Q1023
Loading
Personal Weather Stations






























Interactive Weather Map New forecast layout! Learn more

10-Day Weather Forecast

Advertisements
Track Severe Weather on mobile